createdAt,value
2023-03-15T14:54:07.991Z,22.01
2023-03-15T14:58:07.995Z,22.19
2023-03-15T15:02:08.054Z,21.15
2023-03-15T15:06:08.940Z,20.82
2023-03-15T15:10:07.859Z,20.64
2023-03-15T15:14:11.884Z,20.33
2023-03-15T15:18:08.742Z,20.19
2023-03-15T15:22:07.772Z,20.07
2023-03-15T15:26:07.703Z,20.05
2023-03-15T15:30:07.688Z,19.89
2023-03-15T15:34:07.643Z,19.88
2023-03-15T15:38:07.692Z,20.04
2023-03-15T15:42:07.661Z,19.98
2023-03-15T15:46:07.812Z,20.02
2023-03-15T15:50:07.780Z,20.04
2023-03-15T15:54:07.813Z,20.05
2023-03-15T15:58:09.306Z,20.22
2023-03-15T16:02:07.985Z,20.41
2023-03-15T16:06:07.801Z,20.62
2023-03-15T16:10:07.795Z,20.74
2023-03-15T16:14:07.765Z,20.68
2023-03-15T16:18:07.711Z,20.78
2023-03-15T16:22:08.226Z,20.87
2023-03-15T16:26:07.632Z,20.92
2023-03-15T16:30:07.550Z,21.05
2023-03-15T16:34:07.575Z,21.08
2023-03-15T16:38:07.548Z,21.11
2023-03-15T16:42:07.498Z,21.09
2023-03-15T16:46:07.529Z,21.27
2023-03-15T16:50:07.455Z,21.30
2023-03-15T16:54:19.561Z,21.36
2023-03-15T16:58:08.317Z,21.44
2023-03-15T17:02:07.399Z,21.60
2023-03-15T17:06:07.301Z,21.51
2023-03-15T17:10:07.225Z,21.70
2023-03-15T17:14:07.304Z,21.61
2023-03-15T17:18:07.102Z,21.88
2023-03-15T17:22:07.101Z,21.84
2023-03-15T17:26:07.173Z,21.84
2023-03-15T17:30:07.219Z,21.91
2023-03-15T17:34:07.335Z,21.91
2023-03-15T17:38:07.352Z,22.00
2023-03-15T17:42:07.457Z,22.00
2023-03-15T17:46:07.852Z,21.97
2023-03-15T17:50:07.828Z,22.21
2023-03-15T17:54:07.841Z,22.25
2023-03-15T17:58:07.774Z,22.31
2023-03-15T18:02:07.953Z,22.31
2023-03-15T18:06:08.434Z,22.42
2023-03-15T18:10:08.865Z,22.42
2023-03-15T18:14:09.304Z,22.40
2023-03-15T18:18:08.347Z,22.37
2023-03-15T18:22:08.245Z,22.54
2023-03-15T18:26:08.813Z,22.46
2023-03-15T18:30:08.411Z,22.51
2023-03-15T18:34:08.442Z,22.56
2023-03-15T18:38:08.620Z,22.65
2023-03-15T18:42:08.597Z,22.73
2023-03-15T18:46:08.852Z,22.70
2023-03-15T18:50:10.669Z,22.62
2023-03-15T18:54:08.862Z,22.74
2023-03-15T18:58:09.109Z,22.68
2023-03-15T19:02:09.138Z,22.76
2023-03-15T19:06:09.191Z,22.76
2023-03-15T19:10:09.313Z,22.80
2023-03-15T19:14:09.439Z,22.79
2023-03-15T19:18:09.475Z,22.85
2023-03-15T19:22:09.590Z,22.95
2023-03-15T19:26:09.735Z,22.92
2023-03-15T19:30:09.797Z,22.95
2023-03-15T19:34:09.971Z,23.01
2023-03-15T19:38:10.050Z,23.07
2023-03-15T19:42:10.187Z,23.13
2023-03-15T19:46:10.399Z,23.07
2023-03-15T19:50:10.438Z,23.13
2023-03-15T19:54:10.597Z,23.16
2023-03-15T19:58:10.688Z,23.22
2023-03-15T20:02:10.766Z,23.23
2023-03-15T20:06:10.995Z,23.25
2023-03-15T20:10:11.056Z,23.25
2023-03-15T20:14:11.197Z,23.26
2023-03-15T20:18:11.328Z,23.21
2023-03-15T20:22:11.451Z,23.30
2023-03-15T20:26:11.631Z,23.33
2023-03-15T20:30:11.754Z,23.32
2023-03-15T20:34:11.877Z,23.33
2023-03-15T20:38:12.012Z,23.41
2023-03-15T20:42:12.128Z,23.36
2023-03-15T20:46:12.384Z,23.41
2023-03-15T20:50:12.452Z,23.35
2023-03-15T20:54:12.511Z,23.44
2023-03-15T20:58:12.640Z,23.45
2023-03-15T21:02:12.751Z,23.46
2023-03-15T21:06:12.963Z,23.46
2023-03-15T21:10:12.992Z,23.48
2023-03-15T21:14:13.127Z,23.53
2023-03-15T21:18:13.204Z,23.54
2023-03-15T21:22:13.340Z,23.52
2023-03-15T21:26:13.443Z,23.60
2023-03-15T21:30:13.536Z,23.60
2023-03-15T21:34:13.692Z,23.61
2023-03-15T21:38:13.769Z,23.65
2023-03-15T21:42:13.986Z,23.65
2023-03-15T21:46:14.202Z,23.70
2023-03-15T21:50:14.191Z,23.61
2023-03-15T21:54:14.288Z,23.68
2023-03-15T21:58:14.444Z,23.72
2023-03-15T22:02:14.537Z,23.70
2023-03-15T22:06:14.802Z,23.67
2023-03-15T22:10:14.920Z,23.78
2023-03-15T22:14:14.995Z,23.78
2023-03-15T22:18:16.374Z,23.76
2023-03-15T22:22:15.269Z,23.83
2023-03-15T22:26:15.464Z,23.80
2023-03-15T22:30:15.583Z,23.86
2023-03-15T22:34:15.725Z,23.87
2023-03-15T22:38:15.842Z,23.92
2023-03-15T22:42:15.993Z,23.92
2023-03-15T22:46:16.148Z,23.91
2023-03-15T22:50:16.371Z,23.94
2023-03-15T22:54:16.473Z,24.00
2023-03-15T22:58:16.610Z,23.94
2023-03-15T23:02:16.705Z,23.99
2023-03-15T23:06:17.414Z,23.98
2023-03-15T23:10:17.947Z,24.03
2023-03-15T23:14:17.120Z,23.99
2023-03-15T23:18:17.941Z,24.01
2023-03-15T23:22:17.415Z,24.01
2023-03-15T23:26:17.588Z,24.11
2023-03-15T23:30:17.717Z,24.01
2023-03-15T23:34:17.932Z,24.01
2023-03-15T23:38:17.985Z,23.95
2023-03-15T23:42:18.913Z,23.98
2023-03-15T23:46:18.375Z,23.94
2023-03-15T23:50:18.441Z,24.01
2023-03-15T23:54:18.603Z,24.00
2023-03-15T23:58:18.694Z,24.00
